Time;durP1;ratioP1;P1;durP2;ratioP2;P2;SDS_P1;SDS_P2;PMS_P1;PMS_P2;Temp;Humidity;BMP_temperature;BMP_pressure;BME280_temperature;BME280_humidity;BME280_pressure;Samples;Min_cycle;Max_cycle;Signal;HPM_P1;HPM_P2
2022/04/05 00:01:13;;;;;;;1.80;1.30;;;22.00;50.30;;;;;;5106022;28;20170;-91
2022/04/05 00:03:39;;;;;;;1.30;1.20;;;22.00;50.30;;;;;;5103580;28;20416;-90
2022/04/05 00:06:12;;;;;;;1.70;1.30;;;22.00;50.30;;;;;;5104139;28;20433;-90
2022/04/05 00:08:38;;;;;;;1.73;1.43;;;22.00;50.30;;;;;;5104488;28;20201;-90
2022/04/05 00:11:04;;;;;;;1.70;1.47;;;22.00;50.40;;;;;;5104146;28;20419;-90
2022/04/05 00:13:30;;;;;;;1.40;1.30;;;22.00;50.40;;;;;;5103765;28;20471;-90
2022/04/05 00:15:56;;;;;;;1.40;1.30;;;21.90;50.30;;;;;;5104303;28;20265;-91
2022/04/05 00:18:22;;;;;;;1.37;1.23;;;21.90;50.30;;;;;;5103154;28;20219;-91
2022/04/05 00:20:48;;;;;;;1.83;1.37;;;22.00;50.40;;;;;;5103844;28;20307;-91
2022/04/05 00:23:16;;;;;;;2.03;1.20;;;21.90;50.30;;;;;;5104817;28;20169;-91
2022/04/05 00:26:28;;;;;;;2.17;1.30;;;21.90;50.30;;;;;;5104138;28;20558;-92
2022/04/05 00:29:02;;;;;;;1.63;1.27;;;21.90;50.20;;;;;;5092647;28;20428;-91
2022/04/05 00:31:27;;;;;;;2.70;1.40;;;21.90;50.30;;;;;;5084657;28;20381;-91
2022/04/05 00:37:16;;;;;;;1.50;1.20;;;21.90;50.30;;;;;;5084929;28;20158;-91
2022/04/05 00:39:41;;;;;;;1.70;1.60;;;21.90;50.30;;;;;;5083640;28;20847;-92
2022/04/05 00:45:35;;;;;;;2.10;1.23;;;21.90;50.30;;;;;;5084952;28;20205;-91
2022/04/05 00:48:04;;;;;;;1.63;1.30;;;21.80;50.30;;;;;;5084341;28;20747;-92
2022/04/05 00:50:35;;;;;;;1.90;1.60;;;21.80;50.30;;;;;;5083954;28;20466;-92
2022/04/05 00:53:03;;;;;;;1.50;1.30;;;21.80;50.30;;;;;;5083425;28;20899;-91
2022/04/05 00:55:31;;;;;;;1.50;1.40;;;21.80;50.30;;;;;;5083393;28;20921;-90
2022/04/05 00:57:59;;;;;;;1.50;1.20;;;21.80;50.30;;;;;;5082479;28;20507;-90
2022/04/05 01:00:29;;;;;;;2.00;1.80;;;21.80;50.30;;;;;;5084408;28;20409;-90
2022/04/05 01:06:30;;;;;;;1.70;1.10;;;21.80;50.30;;;;;;5084369;28;20393;-92
2022/04/05 01:08:57;;;;;;;2.03;1.40;;;21.80;50.40;;;;;;5082866;28;20965;-91
2022/04/05 01:11:23;;;;;;;1.80;1.37;;;21.80;50.40;;;;;;5083163;28;20913;-90
2022/04/05 01:13:50;;;;;;;4.27;1.20;;;21.80;50.40;;;;;;5082710;28;20442;-90
2022/04/05 01:16:19;;;;;;;2.30;1.33;;;21.80;50.40;;;;;;5082186;28;20442;-89
2022/04/05 01:18:45;;;;;;;1.70;1.13;;;21.80;50.40;;;;;;5082921;28;20739;-90
2022/04/05 01:21:20;;;;;;;1.57;1.30;;;21.80;50.40;;;;;;5083739;28;20409;-91
2022/04/05 01:24:12;;;;;;;1.60;1.30;;;21.80;50.40;;;;;;5086391;28;20407;-91
2022/04/05 01:26:46;;;;;;;1.77;1.20;;;21.80;50.40;;;;;;5087388;28;20397;-90
2022/04/05 01:29:13;;;;;;;2.33;1.57;;;21.80;50.40;;;;;;5086651;28;20921;-91
2022/04/05 01:31:44;;;;;;;1.80;1.50;;;21.80;50.40;;;;;;5086880;28;20515;-91
2022/04/05 01:34:19;;;;;;;1.77;1.47;;;21.80;50.40;;;;;;5087384;28;20385;-91
2022/04/05 01:36:50;;;;;;;1.63;1.27;;;21.80;50.40;;;;;;5086330;28;20416;-90
2022/04/05 01:39:17;;;;;;;1.37;1.27;;;21.70;50.40;;;;;;5086848;28;20420;-90
2022/04/05 01:41:43;;;;;;;1.80;1.20;;;21.70;50.40;;;;;;5087474;28;20437;-89
2022/04/05 01:44:11;;;;;;;1.97;1.30;;;21.80;50.40;;;;;;5086098;28;20456;-90
2022/04/05 01:46:37;;;;;;;1.90;1.20;;;21.70;50.30;;;;;;5087097;28;20503;-89
2022/04/05 01:49:08;;;;;;;1.20;1.00;;;21.70;50.30;;;;;;5085659;28;20429;-90
2022/04/05 01:51:35;;;;;;;1.73;1.40;;;21.80;50.40;;;;;;5085722;28;20447;-89
2022/04/05 01:54:05;;;;;;;2.17;1.40;;;21.80;50.40;;;;;;5066839;28;20425;-90
2022/04/05 01:56:32;;;;;;;1.53;1.17;;;21.70;50.30;;;;;;5067130;28;20504;-90
2022/04/05 01:58:58;;;;;;;2.20;1.20;;;21.70;50.30;;;;;;5081835;28;20428;-89
2022/04/05 02:01:25;;;;;;;1.20;1.00;;;21.70;50.30;;;;;;5066004;28;20417;-91
2022/04/05 02:03:50;;;;;;;1.63;1.17;;;21.70;50.30;;;;;;5077969;28;20458;-92
2022/04/05 02:06:29;;;;;;;1.50;1.20;;;21.80;50.40;;;;;;5085493;28;20417;-91
2022/04/05 02:08:55;;;;;;;1.17;1.00;;;21.70;50.30;;;;;;5085282;28;20163;-91
2022/04/05 02:11:21;;;;;;;1.20;1.00;;;21.70;50.30;;;;;;5084859;28;20485;-90
2022/04/05 02:13:46;;;;;;;2.40;1.20;;;21.70;50.30;;;;;;5085603;28;20428;-90
2022/04/05 02:22:57;;;;;;;1.37;1.13;;;21.70;50.40;;;;;;5086696;28;20411;-90
2022/04/05 02:25:23;;;;;;;1.80;1.20;;;21.60;50.30;;;;;;5084939;28;20563;-91
2022/04/05 02:27:49;;;;;;;2.07;1.87;;;21.60;50.30;;;;;;5085436;28;20174;-91
2022/04/05 02:33:37;;;;;;;1.70;1.40;;;21.70;50.40;;;;;;5066636;28;20512;-91
2022/04/05 02:36:03;;;;;;;1.33;1.13;;;21.60;50.30;;;;;;5086698;28;20436;-91
2022/04/05 02:38:30;;;;;;;1.30;1.03;;;21.70;50.40;;;;;;5106312;28;20178;-91
2022/04/05 02:40:57;;;;;;;1.50;1.23;;;21.70;50.40;;;;;;5105252;28;20419;-91
2022/04/05 02:43:25;;;;;;;1.80;1.53;;;21.70;50.40;;;;;;5100012;28;20424;-91
2022/04/05 02:45:55;;;;;;;1.70;1.10;;;21.70;50.40;;;;;;5086488;28;20906;-90
2022/04/05 02:48:21;;;;;;;1.40;1.10;;;21.70;50.30;;;;;;5084943;28;20516;-90
2022/04/05 02:50:47;;;;;;;1.97;1.13;;;21.70;50.30;;;;;;5084890;28;20466;-91
2022/04/05 02:53:13;;;;;;;1.20;1.10;;;21.70;50.30;;;;;;5084792;28;20424;-91
2022/04/05 02:55:39;;;;;;;2.70;1.10;;;21.70;50.30;;;;;;5085759;28;20162;-90
2022/04/05 02:58:04;;;;;;;1.20;1.07;;;21.70;50.30;;;;;;5084496;28;20542;-90
2022/04/05 03:03:52;;;;;;;1.10;1.00;;;21.70;50.30;;;;;;5085176;28;20204;-91
2022/04/05 03:06:18;;;;;;;1.70;1.10;;;21.60;50.30;;;;;;5085968;28;20401;-92
2022/04/05 03:08:44;;;;;;;1.40;1.10;;;21.60;50.30;;;;;;5084139;28;20521;-91
2022/04/05 03:11:10;;;;;;;1.20;1.03;;;21.60;50.30;;;;;;5084199;28;20206;-91
2022/04/05 03:13:36;;;;;;;1.77;1.20;;;21.60;50.30;;;;;;5084771;28;20224;-90
2022/04/05 03:16:01;;;;;;;1.17;1.00;;;21.60;50.30;;;;;;5085887;28;20455;-91
2022/04/05 03:18:27;;;;;;;1.43;1.13;;;21.60;50.30;;;;;;5084313;28;20624;-90
2022/04/05 03:20:53;;;;;;;1.43;1.30;;;21.60;50.30;;;;;;5085009;28;20196;-89
2022/04/05 03:23:21;;;;;;;1.90;1.33;;;21.60;50.30;;;;;;5084193;28;20178;-90
2022/04/05 03:25:50;;;;;;;2.07;1.30;;;21.60;50.30;;;;;;5088459;28;20459;-90
2022/04/05 03:28:17;;;;;;;1.37;1.10;;;21.70;50.30;;;;;;5087704;28;20412;-90
2022/04/05 03:30:43;;;;;;;1.20;1.00;;;21.60;50.30;;;;;;5086343;28;20429;-89
2022/04/05 03:33:09;;;;;;;1.53;1.00;;;21.60;50.30;;;;;;5084917;28;20415;-90
2022/04/05 03:35:35;;;;;;;1.37;1.00;;;21.70;50.30;;;;;;5084349;28;20421;-90
2022/04/05 03:38:00;;;;;;;1.10;0.90;;;21.60;50.30;;;;;;5087373;28;20167;-90
2022/04/05 03:40:27;;;;;;;1.20;1.10;;;21.60;50.30;;;;;;5084201;28;20527;-90
2022/04/05 03:42:53;;;;;;;1.20;0.93;;;21.60;50.30;;;;;;5100558;28;20245;-91
2022/04/05 03:45:19;;;;;;;1.70;1.13;;;21.60;50.30;;;;;;5106062;28;20455;-90
2022/04/05 03:47:44;;;;;;;1.57;1.10;;;21.60;50.30;;;;;;5105289;28;20235;-91
2022/04/05 03:53:32;;;;;;;1.27;1.10;;;21.70;50.30;;;;;;5086125;28;20667;-91
2022/04/05 03:55:58;;;;;;;1.50;1.03;;;21.60;50.30;;;;;;5093209;28;20428;-91
2022/04/05 03:58:24;;;;;;;1.90;1.13;;;21.60;50.30;;;;;;5086007;28;20186;-90
2022/04/05 04:00:51;;;;;;;1.27;0.90;;;21.60;50.90;;;;;;5084824;28;20243;-90
2022/04/05 04:03:17;;;;;;;1.63;1.33;;;21.60;50.30;;;;;;5100955;28;20182;-91
2022/04/05 04:05:43;;;;;;;1.60;1.20;;;21.60;50.30;;;;;;5104770;28;20487;-91
2022/04/05 04:08:09;;;;;;;1.10;0.90;;;21.60;50.30;;;;;;5084901;28;20175;-91
2022/04/05 04:10:35;;;;;;;1.37;1.03;;;21.60;50.20;;;;;;5083357;28;20179;-91
2022/04/05 04:13:01;;;;;;;1.90;1.00;;;21.60;50.30;;;;;;5082592;28;20437;-91
2022/04/05 04:15:26;;;;;;;1.20;1.00;;;21.60;50.30;;;;;;5083086;28;20185;-91
2022/04/05 04:17:52;;;;;;;1.30;1.10;;;21.60;50.30;;;;;;5083998;28;20177;-90
2022/04/05 04:20:18;;;;;;;1.20;1.10;;;21.60;50.80;;;;;;5083815;28;20227;-90
2022/04/05 04:22:44;;;;;;;1.50;1.10;;;21.60;50.30;;;;;;5084631;28;20170;-91
2022/04/05 04:25:39;;;;;;;1.57;1.30;;;21.60;50.30;;;;;;5083140;28;20273;-94
2022/04/05 04:28:06;;;;;;;1.27;1.10;;;21.60;50.30;;;;;;5089404;28;20488;-91
2022/04/05 04:30:35;;;;;;;1.30;1.13;;;21.60;50.30;;;;;;5086698;28;20419;-91
2022/04/05 04:33:02;;;;;;;1.30;0.90;;;21.60;50.30;;;;;;5085547;28;20902;-91
2022/04/05 04:35:29;;;;;;;1.00;0.90;;;21.60;50.30;;;;;;5085784;28;20424;-91
2022/04/05 04:37:55;;;;;;;1.40;1.17;;;21.60;50.30;;;;;;5084947;28;20922;-91
2022/04/05 04:40:26;;;;;;;1.17;1.00;;;21.60;50.30;;;;;;5082906;28;20416;-89
2022/04/05 04:43:23;;;;;;;1.77;1.20;;;21.60;50.30;;;;;;5089182;28;20436;-92
2022/04/05 04:45:49;;;;;;;1.20;1.10;;;21.60;50.30;;;;;;5087202;28;20455;-90
2022/04/05 04:48:14;;;;;;;1.60;1.10;;;21.60;50.30;;;;;;5083641;28;20499;-91
2022/04/05 04:50:40;;;;;;;1.57;1.17;;;21.60;50.30;;;;;;5083648;28;20480;-91
2022/04/05 04:59:51;;;;;;;1.40;1.00;;;21.60;50.30;;;;;;5088677;28;20372;-90
2022/04/05 05:02:17;;;;;;;1.87;1.13;;;21.60;50.30;;;;;;5088459;28;20403;-91
2022/04/05 05:04:43;;;;;;;2.07;1.10;;;21.60;50.30;;;;;;5087262;28;20452;-91
2022/04/05 05:07:08;;;;;;;1.50;1.00;;;21.60;50.30;;;;;;5087664;28;20491;-90
2022/04/05 05:12:56;;;;;;;1.70;1.50;;;21.60;50.30;;;;;;5088251;28;20158;-91
2022/04/05 05:15:22;;;;;;;1.43;1.03;;;21.60;50.30;;;;;;5089210;28;20408;-90
2022/04/05 05:17:48;;;;;;;1.20;0.90;;;21.60;50.30;;;;;;5089787;28;20252;-91
2022/04/05 05:20:16;;;;;;;1.40;1.10;;;21.70;50.40;;;;;;5087171;28;20178;-91
2022/04/05 05:22:43;;;;;;;1.50;1.00;;;21.70;50.40;;;;;;5087185;28;20764;-91
2022/04/05 05:25:14;;;;;;;1.63;1.33;;;21.70;50.30;;;;;;5088694;28;20542;-92
2022/04/05 05:27:40;;;;;;;1.20;1.00;;;21.70;50.30;;;;;;5092321;28;20381;-91
2022/04/05 05:30:08;;;;;;;1.20;0.93;;;21.70;50.90;;;;;;5094014;28;20405;-91
2022/04/05 05:32:42;;;;;;;1.03;0.93;;;21.70;50.90;;;;;;5088167;28;20416;-90
2022/04/05 05:35:08;;;;;;;1.57;0.97;;;21.70;50.30;;;;;;5091791;28;20440;-91
2022/04/05 05:37:34;;;;;;;1.63;1.00;;;21.70;50.30;;;;;;5089372;28;20417;-91
2022/04/05 05:40:00;;;;;;;1.50;1.10;;;21.70;50.30;;;;;;5089698;28;20890;-91
2022/04/05 05:42:28;;;;;;;1.50;1.20;;;21.70;50.30;;;;;;5091822;28;20178;-90
2022/04/05 05:44:54;;;;;;;1.30;1.10;;;21.80;50.40;;;;;;5090896;28;20197;-90
2022/04/05 05:47:20;;;;;;;1.40;1.10;;;21.80;50.30;;;;;;5087381;28;20470;-90
2022/04/05 05:49:45;;;;;;;1.73;1.20;;;21.80;50.30;;;;;;5086976;28;20174;-91
2022/04/05 05:52:11;;;;;;;1.50;1.10;;;21.80;50.30;;;;;;5087583;28;20413;-91
2022/04/05 05:54:37;;;;;;;1.90;1.23;;;21.80;50.30;;;;;;5088153;28;20193;-91
2022/04/05 05:57:03;;;;;;;1.07;0.90;;;21.80;50.30;;;;;;5088001;28;20181;-91
2022/04/05 05:59:36;;;;;;;1.20;1.00;;;21.80;50.30;;;;;;5119102;23;20271;-91
2022/04/05 06:02:02;;;;;;;1.57;0.90;;;21.90;50.30;;;;;;5027320;28;20214;-90
2022/04/05 06:04:28;;;;;;;1.20;1.10;;;21.90;50.30;;;;;;5026535;28;20461;-88
2022/04/05 06:06:54;;;;;;;1.10;1.00;;;21.90;50.30;;;;;;5025302;28;20419;-88
2022/04/05 06:09:20;;;;;;;1.17;1.07;;;21.90;50.30;;;;;;5026622;28;20415;-88
2022/04/05 06:11:48;;;;;;;1.23;0.97;;;21.90;50.30;;;;;;5027775;28;20169;-88
2022/04/05 06:14:14;;;;;;;1.20;1.10;;;21.90;50.80;;;;;;5026831;28;20251;-89
2022/04/05 06:16:40;;;;;;;1.87;1.00;;;21.90;50.30;;;;;;5027088;28;20434;-89
2022/04/05 06:19:06;;;;;;;1.40;1.20;;;21.90;50.40;;;;;;5025629;28;20181;-90
2022/04/05 06:21:31;;;;;;;4.10;1.30;;;21.90;50.30;;;;;;5026652;28;20184;-88
2022/04/05 06:23:57;;;;;;;1.43;1.10;;;21.90;50.30;;;;;;5023033;28;20420;-89
2022/04/05 06:26:23;;;;;;;1.30;0.87;;;22.00;50.30;;;;;;5021982;28;20177;-90
2022/04/05 06:28:49;;;;;;;2.00;1.10;;;22.00;50.30;;;;;;5023346;28;20443;-89
2022/04/05 06:31:15;;;;;;;1.50;1.30;;;22.00;50.30;;;;;;5020478;28;20188;-89
2022/04/05 06:33:40;;;;;;;1.30;1.17;;;22.00;50.30;;;;;;5022943;28;20207;-90
2022/04/05 06:36:09;;;;;;;1.43;1.13;;;22.00;50.30;;;;;;5021221;28;20431;-89
2022/04/05 06:38:35;;;;;;;1.40;1.00;;;22.00;50.30;;;;;;5021602;28;20548;-89
2022/04/05 06:41:01;;;;;;;1.77;1.07;;;22.00;50.30;;;;;;5045786;28;20439;-90
2022/04/05 06:43:30;;;;;;;1.87;1.10;;;22.00;50.30;;;;;;5027782;28;20431;-90
2022/04/05 06:45:55;;;;;;;1.13;0.97;;;22.00;50.30;;;;;;5023772;28;20523;-89
2022/04/05 06:48:21;;;;;;;2.00;1.30;;;22.00;50.30;;;;;;5019488;28;20458;-89
2022/04/05 06:50:49;;;;;;;1.20;1.10;;;22.00;50.30;;;;;;5020081;28;20169;-89
2022/04/05 06:53:15;;;;;;;1.47;0.83;;;22.00;50.30;;;;;;5019254;28;20197;-88
2022/04/05 06:55:41;;;;;;;4.97;1.13;;;22.00;50.80;;;;;;5023387;28;20440;-89
2022/04/05 06:58:08;;;;;;;2.03;1.30;;;22.00;50.30;;;;;;5020213;28;20184;-88
2022/04/05 07:00:34;;;;;;;2.93;1.20;;;22.00;50.30;;;;;;5019558;28;20435;-90
2022/04/05 07:03:01;;;;;;;1.37;1.20;;;22.00;50.30;;;;;;5017521;28;20420;-89
2022/04/05 07:05:28;;;;;;;1.47;1.27;;;22.00;50.30;;;;;;5019925;28;20466;-89
2022/04/05 07:08:02;;;;;;;1.80;1.20;;;22.00;50.30;;;;;;5018548;28;20448;-88
2022/04/05 07:10:27;;;;;;;1.50;1.07;;;22.00;50.30;;;;;;5040219;28;20419;-89
2022/04/05 07:12:53;;;;;;;1.97;1.30;;;22.00;50.30;;;;;;5018737;28;20423;-89
2022/04/05 07:15:19;;;;;;;1.73;1.17;;;22.00;50.30;;;;;;5022116;28;20186;-89
2022/04/05 07:17:45;;;;;;;1.30;1.07;;;22.00;50.30;;;;;;5027620;28;20176;-89
2022/04/05 07:20:11;;;;;;;1.50;1.20;;;22.00;50.30;;;;;;5024847;28;20184;-88
2022/04/05 07:22:44;;;;;;;1.30;1.20;;;22.00;50.30;;;;;;5026065;28;20415;-88
2022/04/05 07:25:10;;;;;;;1.20;1.00;;;22.00;50.30;;;;;;5029393;28;20447;-88
2022/04/05 07:27:36;;;;;;;1.40;1.00;;;22.00;50.30;;;;;;5029036;28;20437;-90
2022/04/05 07:30:02;;;;;;;1.37;1.00;;;22.00;50.30;;;;;;5027886;28;20415;-89
2022/04/05 07:32:36;;;;;;;1.53;1.10;;;22.00;50.30;;;;;;5029366;28;20172;-90
2022/04/05 07:35:02;;;;;;;1.60;1.07;;;22.00;50.30;;;;;;5028718;28;20423;-90
2022/04/05 07:37:27;;;;;;;2.27;1.17;;;22.00;50.30;;;;;;5027670;28;20414;-89
2022/04/05 07:39:53;;;;;;;3.20;0.90;;;22.00;50.30;;;;;;5029515;28;20235;-89
2022/04/05 07:42:19;;;;;;;1.30;1.10;;;22.00;50.30;;;;;;5030004;28;20187;-89
2022/04/05 07:44:44;;;;;;;1.10;1.00;;;22.00;50.30;;;;;;5026795;28;20278;-89
2022/04/05 07:47:13;;;;;;;1.20;1.10;;;22.00;50.30;;;;;;5026762;28;20183;-89
2022/04/05 07:49:38;;;;;;;2.03;1.30;;;22.00;50.30;;;;;;5025303;28;20186;-89
2022/04/05 07:52:04;;;;;;;1.80;1.10;;;22.10;50.40;;;;;;5026681;28;20506;-88
2022/04/05 07:54:30;;;;;;;1.43;1.10;;;22.00;50.30;;;;;;5020445;28;20191;-89
2022/04/05 07:56:57;;;;;;;1.30;1.20;;;22.00;50.30;;;;;;5040730;28;20427;-88
2022/04/05 07:59:23;;;;;;;1.33;1.00;;;22.00;50.30;;;;;;5019748;28;20211;-89
2022/04/05 08:05:12;;;;;;;1.97;1.13;;;22.10;50.40;;;;;;5019197;28;20212;-90
2022/04/05 08:07:40;;;;;;;1.80;1.13;;;22.00;50.30;;;;;;5017062;28;20439;-89
2022/04/05 08:10:06;;;;;;;1.80;1.07;;;22.00;50.30;;;;;;5007832;28;20424;-90
2022/04/05 08:12:42;;;;;;;1.43;1.07;;;22.00;50.30;;;;;;5014675;28;20216;-89
2022/04/05 08:15:09;;;;;;;1.60;1.00;;;22.00;50.30;;;;;;5040316;28;20431;-89
2022/04/05 08:17:35;;;;;;;2.00;1.30;;;22.00;50.30;;;;;;5020421;28;20428;-89
2022/04/05 08:20:02;;;;;;;1.27;1.10;;;22.00;50.30;;;;;;5022635;28;20450;-89
2022/04/05 08:22:28;;;;;;;1.70;1.40;;;22.10;50.40;;;;;;5023227;28;20183;-90
2022/04/05 08:24:54;;;;;;;1.77;1.10;;;22.10;50.40;;;;;;5043704;28;20585;-88
2022/04/05 08:27:20;;;;;;;2.93;1.20;;;22.10;50.40;;;;;;5025247;28;20184;-90
2022/04/05 08:33:08;;;;;;;1.30;0.90;;;22.10;50.40;;;;;;5015826;28;20514;-89
2022/04/05 08:35:52;;;;;;;1.30;1.00;;;22.00;50.30;;;;;;5039916;28;20462;-90
2022/04/05 08:38:21;;;;;;;1.53;1.30;;;22.10;50.50;;;;;;5017497;28;20192;-91
2022/04/05 08:41:00;;;;;;;;;;;;;;;;;;;;;
2022/04/05 08:43:34;;;;;;;1.83;0.90;;;22.00;50.30;;;;;;5024585;28;20458;-90
2022/04/05 08:46:01;;;;;;;1.43;1.13;;;22.10;50.40;;;;;;5022052;28;20451;-89
2022/04/05 08:48:29;;;;;;;2.53;1.33;;;22.10;50.40;;;;;;5021420;28;20419;-90
2022/04/05 08:50:57;;;;;;;1.30;1.20;;;22.10;50.40;;;;;;5018848;28;20428;-90
2022/04/05 08:53:24;;;;;;;1.30;1.20;;;22.10;50.40;;;;;;5018496;28;20431;-89
2022/04/05 08:55:51;;;;;;;1.50;1.20;;;22.10;50.50;;;;;;5019819;28;20436;-90
2022/04/05 08:58:18;;;;;;;1.47;1.10;;;22.10;50.50;;;;;;5020981;28;20446;-89
2022/04/05 09:00:44;;;;;;;2.83;1.47;;;22.10;50.40;;;;;;5037824;28;20929;-89
2022/04/05 09:03:10;;;;;;;1.63;1.17;;;22.10;50.50;;;;;;5021608;28;20415;-89
2022/04/05 09:05:37;;;;;;;2.13;1.20;;;22.10;50.50;;;;;;5018433;28;20211;-89
2022/04/05 09:08:27;;;;;;;1.27;1.00;;;22.10;50.50;;;;;;5020089;28;20432;-89
2022/04/05 09:11:10;;;;;;;2.23;1.50;;;22.10;50.50;;;;;;5021202;28;20444;-90
2022/04/05 09:13:36;;;;;;;1.80;1.03;;;22.10;50.50;;;;;;5021828;28;20423;-89
2022/04/05 09:16:05;;;;;;;1.33;1.00;;;22.10;50.50;;;;;;5017800;28;20434;-89
2022/04/05 09:18:36;;;;;;;1.40;1.00;;;22.10;50.50;;;;;;5022206;28;20478;-90
2022/04/05 09:24:43;;;;;;;1.97;1.00;;;22.10;50.50;;;;;;5021588;28;20486;-89
2022/04/05 09:27:10;;;;;;;1.53;1.10;;;22.10;50.60;;;;;;5020500;28;20419;-89
2022/04/05 09:29:41;;;;;;;1.40;0.90;;;22.10;50.60;;;;;;5021464;28;20426;-89
2022/04/05 09:32:07;;;;;;;2.20;1.30;;;22.10;50.60;;;;;;5031874;28;20630;-89
2022/04/05 09:34:46;;;;;;;1.43;1.07;;;22.10;50.60;;;;;;5033987;28;20427;-88
2022/04/05 09:37:13;;;;;;;0.90;0.77;;;22.10;50.60;;;;;;5021690;28;20937;-89
2022/04/05 09:39:38;;;;;;;1.87;1.30;;;22.20;50.60;;;;;;5020866;28;20959;-89
2022/04/05 09:42:08;;;;;;;1.77;0.93;;;22.20;50.60;;;;;;5023239;28;20423;-89
2022/04/05 09:44:42;;;;;;;1.87;1.30;;;22.20;50.60;;;;;;5023164;28;20561;-89
2022/04/05 09:47:16;;;;;;;1.33;1.07;;;22.20;50.60;;;;;;5021503;28;20411;-89
2022/04/05 09:49:44;;;;;;;1.20;1.10;;;22.20;50.60;;;;;;5022496;28;20410;-89
2022/04/05 09:52:31;;;;;;;1.30;1.07;;;22.20;50.60;;;;;;5023011;28;20414;-89
2022/04/05 09:55:15;;;;;;;1.40;0.90;;;22.20;50.60;;;;;;5022477;28;20412;-89
2022/04/05 09:57:45;;;;;;;1.17;0.90;;;22.20;50.60;;;;;;5022100;28;20494;-89
2022/04/05 10:00:17;;;;;;;1.13;0.93;;;22.20;50.60;;;;;;5022396;28;20435;-89
2022/04/05 10:03:18;;;;;;;1.53;1.10;;;22.20;50.70;;;;;;5021178;28;20414;-90
2022/04/05 10:05:53;;;;;;;1.50;1.20;;;22.20;50.60;;;;;;5015657;28;20983;-87
2022/04/05 10:08:20;;;;;;;1.30;1.00;;;22.20;50.70;;;;;;5022689;28;20510;-89
2022/04/05 10:10:49;;;;;;;2.07;1.00;;;22.20;50.70;;;;;;5043510;28;20427;-90
2022/04/05 10:13:14;;;;;;;1.20;0.90;;;22.20;50.70;;;;;;5023808;28;20879;-89
2022/04/05 10:25:59;;;;;;;1.80;1.17;;;22.20;50.60;;;;;;4982954;28;20458;-89
2022/04/05 10:28:30;;;;;;;1.67;0.97;;;22.20;50.60;;;;;;4957842;28;20434;-89
2022/04/05 10:31:01;;;;;;;1.30;1.00;;;22.20;50.70;;;;;;4973435;28;20884;-90
2022/04/05 10:33:38;;;;;;;1.10;0.80;;;22.20;50.60;;;;;;4958378;28;20418;-89
2022/04/05 10:36:04;;;;;;;1.53;1.00;;;22.20;50.60;;;;;;4950597;28;20433;-90
2022/04/05 10:38:30;;;;;;;1.93;0.97;;;22.20;50.60;;;;;;4976191;28;20421;-90
2022/04/05 10:44:22;;;;;;;1.13;0.97;;;22.30;50.60;;;;;;4968719;28;20340;-90
2022/04/05 10:47:04;;;;;;;1.00;0.80;;;22.20;50.50;;;;;;4976304;28;20418;-89
2022/04/05 10:49:50;;;;;;;1.20;0.80;;;22.30;50.60;;;;;;4999949;28;20411;-91
2022/04/05 10:52:25;;;;;;;1.13;0.80;;;22.20;50.50;;;;;;5040460;28;20433;-90
2022/04/05 10:55:12;;;;;;;2.10;1.10;;;22.20;50.60;;;;;;5020018;28;20434;-91
2022/04/05 10:57:39;;;;;;;1.20;0.90;;;22.20;50.50;;;;;;5024468;28;20407;-90
2022/04/05 11:00:12;;;;;;;1.30;0.90;;;22.20;50.50;;;;;;5023187;28;20447;-89
2022/04/05 11:03:11;;;;;;;1.97;1.20;;;22.20;50.50;;;;;;5024247;28;20489;-91
2022/04/05 11:05:41;;;;;;;2.37;1.47;;;22.30;50.60;;;;;;5021925;28;20497;-90
2022/04/05 11:08:16;;;;;;;1.57;0.97;;;22.30;50.60;;;;;;5024566;28;20415;-90
2022/04/05 11:10:44;;;;;;;1.87;1.00;;;22.30;50.60;;;;;;5024553;28;20406;-89
2022/04/05 11:13:13;;;;;;;1.33;1.10;;;22.20;50.50;;;;;;5024929;28;20446;-90
2022/04/05 11:19:04;;;;;;;1.03;0.83;;;22.30;50.50;;;;;;5025706;28;20479;-89
2022/04/05 11:21:35;;;;;;;1.30;1.00;;;22.20;50.50;;;;;;5026805;28;20411;-89
2022/04/05 11:24:01;;;;;;;2.67;1.20;;;22.20;50.50;;;;;;5025362;28;20414;-90
2022/04/05 11:26:35;;;;;;;1.30;0.97;;;22.20;50.50;;;;;;5025289;28;20427;-89
2022/04/05 11:29:03;;;;;;;3.20;1.00;;;22.20;50.50;;;;;;5042098;28;20461;-90
2022/04/05 11:31:37;;;;;;;1.60;1.00;;;22.20;50.50;;;;;;5024892;28;20411;-89
2022/04/05 11:34:39;;;;;;;1.73;1.00;;;22.20;51.10;;;;;;5041092;28;20427;-90
2022/04/05 11:37:07;;;;;;;1.10;0.90;;;22.30;50.60;;;;;;5025012;28;20472;-89
2022/04/05 11:39:38;;;;;;;1.90;1.17;;;22.20;50.50;;;;;;5025379;28;20419;-89
2022/04/05 11:42:04;;;;;;;1.53;0.90;;;22.20;50.50;;;;;;5025285;28;20451;-89
2022/04/05 11:44:29;;;;;;;3.20;1.10;;;22.20;50.50;;;;;;5024599;28;20458;-90
2022/04/05 11:46:57;;;;;;;1.30;1.10;;;22.20;50.50;;;;;;5025622;28;20414;-90
2022/04/05 11:49:23;;;;;;;1.93;1.23;;;22.20;50.50;;;;;;5023881;28;20191;-89
2022/04/05 11:51:53;;;;;;;1.60;1.50;;;22.20;50.50;;;;;;5024491;28;20435;-89
2022/04/05 11:54:24;;;;;;;3.03;1.30;;;22.20;50.50;;;;;;5023886;28;20250;-89
2022/04/05 11:56:51;;;;;;;1.60;0.90;;;22.20;50.50;;;;;;5024621;28;20411;-89
2022/04/05 11:59:28;;;;;;;2.03;1.20;;;22.20;50.50;;;;;;5022436;28;20439;-89
2022/04/05 12:02:17;;;;;;;1.87;1.07;;;22.20;50.50;;;;;;5026308;28;20481;-90
2022/04/05 12:04:43;;;;;;;2.43;1.00;;;22.20;50.50;;;;;;5038233;28;20486;-89
2022/04/05 12:07:09;;;;;;;1.93;1.10;;;22.20;50.60;;;;;;5025754;28;20411;-89
2022/04/05 12:09:46;;;;;;;1.50;0.80;;;22.20;50.60;;;;;;5038054;28;20179;-88
2022/04/05 12:12:12;;;;;;;1.20;0.90;;;22.20;50.50;;;;;;5036133;28;20437;-89
2022/04/05 12:14:56;;;;;;;1.53;1.00;;;22.20;50.60;;;;;;5024151;28;20419;-89
2022/04/05 12:17:24;;;;;;;1.63;1.07;;;22.20;50.60;;;;;;5023774;28;20430;-89
2022/04/05 12:19:53;;;;;;;1.67;1.03;;;22.20;50.60;;;;;;5021425;28;20431;-89
2022/04/05 12:22:19;;;;;;;2.27;0.97;;;22.20;50.60;;;;;;5022747;28;20415;-90
2022/04/05 12:24:51;;;;;;;1.50;1.00;;;22.20;50.60;;;;;;5023415;28;21075;-89
2022/04/05 12:27:21;;;;;;;2.60;1.17;;;22.20;50.60;;;;;;5017897;28;20451;-89
2022/04/05 12:29:47;;;;;;;1.73;1.00;;;22.20;50.60;;;;;;5009075;28;20440;-89
2022/04/05 12:32:17;;;;;;;2.57;1.00;;;22.20;50.60;;;;;;5009390;28;20432;-88
2022/04/05 12:34:45;;;;;;;1.30;1.00;;;22.20;50.60;;;;;;5017706;28;20204;-89
2022/04/05 12:37:17;;;;;;;5.53;1.10;;;22.20;50.60;;;;;;5041294;28;20416;-89
2022/04/05 12:39:50;;;;;;;1.87;0.77;;;22.20;50.60;;;;;;5020539;28;20439;-89
2022/04/05 12:42:16;;;;;;;1.53;1.07;;;22.20;50.60;;;;;;5009031;28;20408;-89
2022/04/05 12:44:55;;;;;;;1.47;0.97;;;22.20;50.60;;;;;;5022369;28;20722;-89
2022/04/05 12:47:23;;;;;;;1.50;0.97;;;22.20;50.60;;;;;;5039634;28;20430;-90
2022/04/05 12:49:51;;;;;;;1.30;1.00;;;22.20;50.60;;;;;;5017097;28;20412;-89
2022/04/05 12:52:21;;;;;;;1.60;1.10;;;22.20;50.60;;;;;;5039631;28;20803;-90
2022/04/05 12:54:57;;;;;;;1.50;1.00;;;22.20;50.60;;;;;;5017111;28;20929;-88
2022/04/05 12:57:37;;;;;;;1.37;0.80;;;22.20;50.60;;;;;;5040100;28;20425;-90
2022/04/05 13:00:13;;;;;;;1.00;0.70;;;22.20;50.60;;;;;;5014497;28;20514;-89
2022/04/05 13:02:45;;;;;;;1.10;0.80;;;22.20;50.60;;;;;;5008938;28;20495;-89
2022/04/05 13:08:05;;;;;;;1.10;1.00;;;22.20;50.60;;;;;;5013651;28;20395;-89
2022/04/05 13:10:40;;;;;;;2.17;1.00;;;22.20;50.60;;;;;;5008243;28;20790;-89
2022/04/05 13:13:37;;;;;;;1.33;1.10;;;22.20;50.60;;;;;;5012382;28;20440;-90
2022/04/05 13:16:07;;;;;;;1.17;0.73;;;22.20;50.60;;;;;;5034036;28;20493;-91
2022/04/05 13:18:41;;;;;;;1.30;0.90;;;22.20;50.70;;;;;;5021305;28;20426;-91
2022/04/05 13:21:07;;;;;;;1.00;0.70;;;22.20;50.70;;;;;;5024435;28;20427;-88
2022/04/05 13:23:37;;;;;;;1.10;0.87;;;22.20;50.70;;;;;;5015951;28;20435;-89
2022/04/05 13:26:17;;;;;;;1.20;0.90;;;22.30;50.70;;;;;;5014592;28;20212;-88
2022/04/05 13:28:44;;;;;;;1.83;0.93;;;22.30;50.70;;;;;;5025730;28;20431;-88
2022/04/05 13:31:57;;;;;;;1.30;0.90;;;22.30;50.70;;;;;;5023121;28;20423;-88
2022/04/05 13:34:28;;;;;;;1.20;1.10;;;22.30;50.70;;;;;;5028114;28;20427;-88
2022/04/05 13:36:54;;;;;;;1.20;0.90;;;22.30;50.70;;;;;;5028443;28;20442;-88
2022/04/05 13:39:27;;;;;;;1.50;1.00;;;22.30;50.70;;;;;;5028732;28;20927;-88
2022/04/05 13:41:53;;;;;;;1.33;0.90;;;22.30;50.70;;;;;;5030174;28;20866;-88
2022/04/05 13:44:23;;;;;;;1.67;1.17;;;22.30;50.70;;;;;;5028715;28;20418;-91
2022/04/05 13:47:13;;;;;;;2.03;0.90;;;22.30;50.70;;;;;;5030882;28;20468;-92
2022/04/05 13:49:41;;;;;;;1.10;0.87;;;22.40;50.70;;;;;;5029275;28;20502;-89
2022/04/05 13:52:33;;;;;;;;;;;;;;;;;;;;;
2022/04/05 13:55:52;;;;;;;;;;;;;;;;;;;;;
2022/04/05 13:58:30;;;;;;;1.33;0.80;;;22.40;50.80;;;;;;4999658;28;20487;-93
2022/04/05 14:01:36;;;;;;;1.60;0.93;;;22.40;50.70;;;;;;5030292;28;20431;-92
2022/04/05 14:04:10;;;;;;;1.20;0.90;;;22.40;50.80;;;;;;5029127;28;20442;-93
2022/04/05 14:14:05;;;;;;;1.13;0.93;;;22.40;50.70;;;;;;5032120;28;20367;-93
2022/04/05 14:16:36;;;;;;;1.60;0.90;;;22.40;50.80;;;;;;5029390;28;20499;-91
2022/04/05 14:19:04;;;;;;;2.03;0.83;;;22.40;50.80;;;;;;5028999;28;20560;-92